createdAt,value
2022-09-26T00:00:09.361Z,78.83
2022-09-26T00:02:36.025Z,78.90
2022-09-26T00:05:02.744Z,78.70
2022-09-26T00:07:29.334Z,78.63
2022-09-26T00:09:55.940Z,79.30
2022-09-26T00:12:22.533Z,78.56
2022-09-26T00:14:49.030Z,78.93
2022-09-26T00:17:15.634Z,79.07
2022-09-26T00:19:42.172Z,79.03
2022-09-26T00:22:08.757Z,78.55
2022-09-26T00:24:35.553Z,78.53
2022-09-26T00:27:02.096Z,78.67
2022-09-26T00:29:28.617Z,78.74
2022-09-26T00:31:55.097Z,78.98
2022-09-26T00:34:21.624Z,78.29
2022-09-26T00:36:48.219Z,78.99
2022-09-26T00:39:15.985Z,79.30
2022-09-26T00:41:43.349Z,79.58
2022-09-26T00:44:34.843Z,79.69
2022-09-26T00:47:01.881Z,79.67
2022-09-26T00:49:37.618Z,79.98
2022-09-26T00:52:12.873Z,79.58
2022-09-26T00:54:45.360Z,79.56
2022-09-26T00:57:24.763Z,80.23
2022-09-26T00:59:57.459Z,79.58
2022-09-26T01:02:27.052Z,78.50
2022-09-26T01:04:55.359Z,77.47
2022-09-26T01:07:25.974Z,77.62
2022-09-26T01:09:53.016Z,77.26
2022-09-26T01:12:21.185Z,78.24
2022-09-26T01:14:50.676Z,78.71
2022-09-26T01:17:17.667Z,79.12
2022-09-26T01:20:21.971Z,79.21
2022-09-26T01:23:20.359Z,79.40
2022-09-26T01:26:26.513Z,79.38
2022-09-26T01:29:15.793Z,80.03
2022-09-26T01:32:06.780Z,80.33
2022-09-26T01:34:50.839Z,79.99
2022-09-26T01:37:39.489Z,79.70
2022-09-26T01:40:17.816Z,79.80
2022-09-26T01:43:00.124Z,79.95
2022-09-26T01:45:34.075Z,79.58
2022-09-26T01:48:33.749Z,79.67
2022-09-26T01:51:05.211Z,80.22
2022-09-26T01:53:40.227Z,79.86
2022-09-26T01:56:12.652Z,79.20
2022-09-26T01:58:48.077Z,79.67
2022-09-26T02:01:18.744Z,79.38
2022-09-26T02:03:49.743Z,80.04
2022-09-26T02:06:24.483Z,80.57
2022-09-26T02:08:57.607Z,80.24
2022-09-26T02:11:26.392Z,80.45
2022-09-26T02:13:59.587Z,80.91
2022-09-26T02:16:31.929Z,80.74
2022-09-26T02:19:13.648Z,80.65
2022-09-26T02:21:42.556Z,80.69
2022-09-26T02:24:09.142Z,80.92
2022-09-26T02:26:35.797Z,81.35
2022-09-26T02:29:02.425Z,81.08
2022-09-26T02:31:34.192Z,80.08
2022-09-26T02:34:03.351Z,79.47
2022-09-26T02:36:33.115Z,79.29
2022-09-26T02:39:00.097Z,79.34
2022-09-26T02:41:41.856Z,79.83
2022-09-26T02:44:39.189Z,80.32
2022-09-26T02:47:39.820Z,80.44
2022-09-26T02:50:40.529Z,80.60
2022-09-26T02:53:10.281Z,80.88
2022-09-26T02:55:45.887Z,80.54
2022-09-26T02:58:21.292Z,80.97
2022-09-26T03:01:03.938Z,81.25
2022-09-26T03:03:51.065Z,80.68
2022-09-26T03:06:22.903Z,81.52
2022-09-26T03:08:49.669Z,81.40
2022-09-26T03:11:24.000Z,81.20
2022-09-26T03:13:53.602Z,81.11
2022-09-26T03:16:22.503Z,80.60
2022-09-26T03:18:54.553Z,80.07
2022-09-26T03:21:21.681Z,80.67
2022-09-26T03:23:49.163Z,80.88
2022-09-26T03:26:24.651Z,80.50
2022-09-26T03:28:52.385Z,80.22
2022-09-26T03:31:22.331Z,80.88
2022-09-26T03:33:49.160Z,80.63
2022-09-26T03:36:16.036Z,80.28
2022-09-26T03:38:42.779Z,80.65
2022-09-26T03:41:09.765Z,80.67
2022-09-26T03:43:36.843Z,80.60
2022-09-26T03:46:07.549Z,80.67
2022-09-26T03:48:34.675Z,80.92
2022-09-26T03:51:09.535Z,80.61
2022-09-26T03:53:38.499Z,80.51
2022-09-26T03:56:08.429Z,80.56
2022-09-26T03:58:35.308Z,80.30
2022-09-26T04:01:10.978Z,80.81
2022-09-26T04:03:39.493Z,80.86
2022-09-26T04:06:10.911Z,79.89
2022-09-26T04:08:38.973Z,80.21
2022-09-26T04:11:11.695Z,80.63
2022-09-26T04:13:51.213Z,80.75
2022-09-26T04:16:20.283Z,80.74
2022-09-26T04:18:47.148Z,80.71
2022-09-26T04:21:14.486Z,81.16
2022-09-26T04:23:42.882Z,81.28
2022-09-26T04:26:20.131Z,81.28
2022-09-26T04:28:49.503Z,81.16
2022-09-26T04:31:16.107Z,80.83
2022-09-26T04:33:42.655Z,80.91
2022-09-26T04:36:11.687Z,80.99
2022-09-26T04:38:39.325Z,81.22
2022-09-26T04:41:13.823Z,81.13
2022-09-26T04:43:41.046Z,81.42
2022-09-26T04:46:18.563Z,80.69
2022-09-26T04:48:47.945Z,80.77
2022-09-26T04:51:16.931Z,80.39
2022-09-26T04:53:44.184Z,80.95
2022-09-26T04:56:14.010Z,80.64
2022-09-26T04:58:42.352Z,80.82
2022-09-26T05:01:17.372Z,80.52
2022-09-26T05:03:44.307Z,80.92
2022-09-26T05:06:12.379Z,80.31
2022-09-26T05:08:41.383Z,80.06
2022-09-26T05:11:09.433Z,80.25
2022-09-26T05:13:37.802Z,80.15
2022-09-26T05:16:06.325Z,79.69
2022-09-26T05:18:33.776Z,79.89
2022-09-26T05:21:01.420Z,80.05
2022-09-26T05:23:46.732Z,80.32
2022-09-26T05:26:23.324Z,80.53
2022-09-26T05:28:55.510Z,80.43
2022-09-26T05:31:39.478Z,80.12
2022-09-26T05:34:19.231Z,80.29
2022-09-26T05:36:48.667Z,80.47
2022-09-26T05:39:35.876Z,80.32
2022-09-26T05:42:06.593Z,79.88
2022-09-26T05:44:33.600Z,79.71
2022-09-26T05:47:00.506Z,79.35
2022-09-26T05:49:27.833Z,79.56
2022-09-26T05:51:54.635Z,79.44
2022-09-26T05:54:21.178Z,79.00
2022-09-26T05:56:48.362Z,79.09
2022-09-26T05:59:14.953Z,78.52
2022-09-26T06:01:41.595Z,78.48
2022-09-26T06:04:10.281Z,78.77
2022-09-26T06:06:36.865Z,78.28
2022-09-26T06:09:03.921Z,78.00
2022-09-26T06:11:33.241Z,76.75
2022-09-26T06:14:00.770Z,76.54
2022-09-26T06:16:28.147Z,76.80
2022-09-26T06:18:55.927Z,76.89
2022-09-26T06:21:23.456Z,76.81
2022-09-26T06:23:50.085Z,76.38
2022-09-26T06:26:21.880Z,76.68
2022-09-26T06:28:50.048Z,76.31
2022-09-26T06:31:18.915Z,75.99
2022-09-26T06:33:50.427Z,75.55
2022-09-26T06:36:17.159Z,75.35
2022-09-26T06:38:43.654Z,75.39
2022-09-26T06:41:10.223Z,75.39
2022-09-26T06:43:36.988Z,75.29
2022-09-26T06:46:08.347Z,75.19
2022-09-26T06:48:35.444Z,75.40
2022-09-26T06:51:02.016Z,75.12
2022-09-26T06:53:28.857Z,74.98
2022-09-26T06:55:55.419Z,74.80
2022-09-26T06:58:22.014Z,74.26
2022-09-26T07:00:48.704Z,74.09
2022-09-26T07:03:16.043Z,73.58
2022-09-26T07:05:44.864Z,73.80
2022-09-26T07:08:13.634Z,74.31
2022-09-26T07:10:40.192Z,73.92
2022-09-26T07:13:09.464Z,74.03
2022-09-26T07:15:37.528Z,73.81
2022-09-26T07:18:06.486Z,73.50
2022-09-26T07:20:36.821Z,73.91
2022-09-26T07:23:05.031Z,72.91
2022-09-26T07:25:33.279Z,72.42
2022-09-26T07:28:00.327Z,71.71
2022-09-26T07:30:28.295Z,71.97
2022-09-26T07:33:05.381Z,71.17
2022-09-26T07:35:33.860Z,72.30
2022-09-26T07:38:00.450Z,72.57
2022-09-26T07:40:27.642Z,72.09
2022-09-26T07:43:18.734Z,70.97
2022-09-26T07:46:06.165Z,69.80
2022-09-26T07:48:58.668Z,70.00
2022-09-26T07:51:25.221Z,69.67
2022-09-26T07:53:52.629Z,69.60
2022-09-26T07:56:19.192Z,69.13
2022-09-26T07:58:46.427Z,69.29
2022-09-26T08:01:15.126Z,69.55
2022-09-26T08:03:43.702Z,69.57
2022-09-26T08:06:12.976Z,69.30
2022-09-26T08:08:43.808Z,69.23
2022-09-26T08:11:18.234Z,69.92
2022-09-26T08:13:45.360Z,69.08
2022-09-26T08:16:19.354Z,68.65
2022-09-26T08:18:47.078Z,68.73
2022-09-26T08:21:14.345Z,68.90
2022-09-26T08:23:41.632Z,68.29
2022-09-26T08:26:08.466Z,69.15
2022-09-26T08:28:37.717Z,68.50
2022-09-26T08:31:05.767Z,68.59
2022-09-26T08:33:35.278Z,68.36
2022-09-26T08:36:10.218Z,68.33
2022-09-26T08:38:37.851Z,68.06
2022-09-26T08:41:13.525Z,68.03
2022-09-26T08:44:12.388Z,67.96
2022-09-26T08:47:34.356Z,68.53
2022-09-26T08:50:09.550Z,68.03
2022-09-26T08:52:58.408Z,67.73
2022-09-26T08:55:33.123Z,67.88
2022-09-26T08:58:07.096Z,67.37
2022-09-26T09:00:38.275Z,67.67
2022-09-26T09:03:11.042Z,67.40
2022-09-26T09:05:42.123Z,66.94
2022-09-26T09:08:17.392Z,66.68
2022-09-26T09:11:12.754Z,66.97
2022-09-26T09:14:00.677Z,66.41
2022-09-26T09:16:42.141Z,66.04
2022-09-26T09:19:17.368Z,65.31
2022-09-26T09:21:59.161Z,64.31
2022-09-26T09:24:38.168Z,64.09
2022-09-26T09:30:22.678Z,63.69
2022-09-26T09:32:53.683Z,62.94
2022-09-26T09:35:27.901Z,62.95
2022-09-26T09:37:55.083Z,61.91
2022-09-26T09:40:30.256Z,62.05
2022-09-26T09:43:26.762Z,61.80
2022-09-26T09:46:01.660Z,61.03
2022-09-26T09:48:28.498Z,60.82
2022-09-26T09:51:06.226Z,59.03
2022-09-26T09:53:35.717Z,59.52
2022-09-26T09:56:45.434Z,59.75
2022-09-26T09:59:22.139Z,57.33
2022-09-26T10:02:11.159Z,59.05
2022-09-26T10:04:46.476Z,59.33
2022-09-26T10:07:13.356Z,59.32
2022-09-26T10:09:41.902Z,58.03
2022-09-26T10:12:18.200Z,57.67
2022-09-26T10:15:02.618Z,57.25
2022-09-26T10:17:29.639Z,57.86
2022-09-26T10:19:56.846Z,57.60
2022-09-26T10:22:32.484Z,57.34
2022-09-26T10:25:16.039Z,57.05
2022-09-26T10:27:50.162Z,56.33
2022-09-26T10:30:19.901Z,57.20
2022-09-26T10:32:52.771Z,56.73
2022-09-26T10:35:43.661Z,56.65
2022-09-26T10:38:27.393Z,56.84
2022-09-26T10:40:59.800Z,57.10
2022-09-26T10:43:31.302Z,56.87
2022-09-26T10:46:19.236Z,56.63
2022-09-26T10:48:52.361Z,56.51
2022-09-26T10:51:28.734Z,56.48
2022-09-26T10:54:08.755Z,56.08
2022-09-26T10:56:47.144Z,55.91
2022-09-26T10:59:24.451Z,55.43
2022-09-26T11:01:56.525Z,55.13
2022-09-26T11:04:45.799Z,54.84
2022-09-26T11:07:24.567Z,53.78
2022-09-26T11:09:53.222Z,53.53
2022-09-26T11:12:27.458Z,52.32
2022-09-26T11:14:58.610Z,52.24
2022-09-26T11:17:45.375Z,51.65
2022-09-26T11:20:27.421Z,51.70
2022-09-26T11:23:24.381Z,52.03
2022-09-26T11:26:12.906Z,51.16
2022-09-26T11:28:50.180Z,51.49
2022-09-26T11:31:28.390Z,50.83
2022-09-26T11:33:59.551Z,51.23
2022-09-26T11:37:04.039Z,51.15
2022-09-26T11:40:08.554Z,49.89
2022-09-26T11:42:49.077Z,50.05
2022-09-26T11:45:45.263Z,49.68
2022-09-26T11:48:19.928Z,50.52
2022-09-26T11:51:40.316Z,50.65
2022-09-26T11:54:45.715Z,51.59
2022-09-26T11:57:24.610Z,51.06
2022-09-26T12:00:06.581Z,51.49
2022-09-26T12:02:40.001Z,52.07
2022-09-26T12:05:30.416Z,52.06
2022-09-26T12:08:19.253Z,52.13
2022-09-26T12:10:56.717Z,51.77
2022-09-26T12:13:41.697Z,52.17
2022-09-26T12:16:41.108Z,52.87
2022-09-26T12:19:20.160Z,52.82
2022-09-26T12:22:27.616Z,52.61
2022-09-26T12:25:07.401Z,53.01
2022-09-26T12:28:08.138Z,53.28
2022-09-26T12:31:01.262Z,54.05
2022-09-26T12:33:50.050Z,54.27
2022-09-26T12:36:23.053Z,55.10
2022-09-26T12:38:57.007Z,55.11
2022-09-26T12:41:52.693Z,55.13
2022-09-26T12:44:31.677Z,55.49
2022-09-26T12:47:10.731Z,55.48
2022-09-26T12:49:40.367Z,55.97
2022-09-26T12:52:21.544Z,55.32
2022-09-26T12:55:13.045Z,56.07
2022-09-26T12:57:51.176Z,56.45
2022-09-26T13:00:23.139Z,55.67
2022-09-26T13:03:15.952Z,55.66
2022-09-26T13:05:51.785Z,55.45
2022-09-26T13:08:37.934Z,55.93
2022-09-26T13:11:32.681Z,55.82
2022-09-26T13:14:13.374Z,55.86
2022-09-26T13:17:09.881Z,56.03
2022-09-26T13:19:48.309Z,56.13
2022-09-26T13:22:31.655Z,55.91
2022-09-26T13:25:17.506Z,55.50
2022-09-26T13:27:51.399Z,55.73
2022-09-26T13:30:23.371Z,56.16
2022-09-26T13:33:20.413Z,56.11
2022-09-26T13:35:51.205Z,56.34
2022-09-26T13:38:36.001Z,55.88
2022-09-26T13:41:32.836Z,55.91
2022-09-26T13:44:37.867Z,56.52
2022-09-26T13:47:13.494Z,56.91
2022-09-26T13:50:19.847Z,57.03
2022-09-26T13:53:16.123Z,57.57
2022-09-26T13:55:43.548Z,57.32
2022-09-26T13:58:21.725Z,57.38
2022-09-26T14:00:53.152Z,57.36
2022-09-26T14:03:24.972Z,57.72
2022-09-26T14:06:06.703Z,57.59
2022-09-26T14:08:52.811Z,58.12
2022-09-26T14:11:19.409Z,57.96
2022-09-26T14:14:18.295Z,58.23
2022-09-26T14:16:46.979Z,58.26
2022-09-26T14:19:35.738Z,58.32
2022-09-26T14:22:05.790Z,58.37
2022-09-26T14:24:34.698Z,58.89
2022-09-26T14:27:12.743Z,58.98
2022-09-26T14:29:45.092Z,58.59
2022-09-26T14:32:18.823Z,58.94
2022-09-26T14:34:54.812Z,58.86
2022-09-26T14:37:24.442Z,58.90
2022-09-26T14:40:11.780Z,58.84
2022-09-26T14:43:00.175Z,59.02
2022-09-26T14:45:43.862Z,59.11
2022-09-26T14:48:17.091Z,58.86
2022-09-26T14:51:01.514Z,58.70
2022-09-26T14:53:42.104Z,59.01
2022-09-26T14:56:29.900Z,58.58
2022-09-26T14:59:26.261Z,59.66
2022-09-26T15:02:11.540Z,59.79
2022-09-26T15:04:39.084Z,59.53
2022-09-26T15:07:16.274Z,59.74
2022-09-26T15:09:48.912Z,58.99
2022-09-26T15:12:26.183Z,59.30
2022-09-26T15:15:05.138Z,59.91
2022-09-26T15:17:37.146Z,59.38
2022-09-26T15:20:09.543Z,59.78
2022-09-26T15:22:44.354Z,59.75
2022-09-26T15:25:31.180Z,59.63
2022-09-26T15:28:01.069Z,59.35
2022-09-26T15:30:38.541Z,59.09
2022-09-26T15:33:06.028Z,58.88
2022-09-26T15:35:34.079Z,58.86
2022-09-26T15:38:03.797Z,58.17
2022-09-26T15:40:32.192Z,58.29
2022-09-26T15:43:09.592Z,58.08
2022-09-26T15:45:59.755Z,58.50
2022-09-26T15:48:33.538Z,57.31
2022-09-26T15:51:15.972Z,57.85
2022-09-26T15:53:50.676Z,58.12
2022-09-26T15:56:27.652Z,58.37
2022-09-26T15:58:57.131Z,58.08
2022-09-26T16:01:28.234Z,56.10
2022-09-26T16:04:20.505Z,52.88
2022-09-26T16:06:57.500Z,51.04
2022-09-26T16:09:34.174Z,50.55
2022-09-26T16:12:05.808Z,50.42
2022-09-26T16:14:42.899Z,50.10
2022-09-26T16:17:26.384Z,49.93
2022-09-26T16:19:55.669Z,49.90
2022-09-26T16:22:29.418Z,49.72
2022-09-26T16:25:25.519Z,49.28
2022-09-26T16:28:00.152Z,49.55
2022-09-26T16:30:30.113Z,48.73
2022-09-26T16:33:17.502Z,49.01
2022-09-26T16:35:46.658Z,49.50
2022-09-26T16:38:34.915Z,49.53
2022-09-26T16:41:42.427Z,50.12
2022-09-26T16:44:35.300Z,48.80
2022-09-26T16:47:06.032Z,49.68
2022-09-26T16:49:45.775Z,49.30
2022-09-26T16:52:35.749Z,49.80
2022-09-26T16:55:08.847Z,48.93
2022-09-26T16:57:39.149Z,49.15
2022-09-26T17:02:52.777Z,48.92
2022-09-26T17:05:22.618Z,48.04
2022-09-26T17:07:50.071Z,48.03
2022-09-26T17:10:19.774Z,48.16
2022-09-26T17:12:53.610Z,49.66
2022-09-26T17:15:30.054Z,48.86
2022-09-26T17:17:58.397Z,49.96
2022-09-26T17:20:25.178Z,49.54
2022-09-26T17:22:51.833Z,49.03
2022-09-26T17:25:18.867Z,49.06
2022-09-26T17:27:49.343Z,48.58
2022-09-26T17:30:19.254Z,48.26
2022-09-26T17:32:49.904Z,49.22
2022-09-26T17:35:19.538Z,48.93
2022-09-26T17:37:46.521Z,49.32
2022-09-26T17:40:18.981Z,49.72
2022-09-26T17:42:46.352Z,48.98
2022-09-26T17:45:13.023Z,48.16
2022-09-26T17:47:40.411Z,47.72
2022-09-26T17:50:10.109Z,47.71
2022-09-26T17:52:38.322Z,48.14
2022-09-26T17:55:07.686Z,47.97
2022-09-26T17:57:39.514Z,47.96
2022-09-26T18:00:11.261Z,48.06
2022-09-26T18:02:44.609Z,49.19
2022-09-26T18:05:20.658Z,49.87
2022-09-26T18:07:52.411Z,49.85
2022-09-26T18:10:24.991Z,50.54
2022-09-26T18:12:57.833Z,49.64
2022-09-26T18:15:26.128Z,49.42
2022-09-26T18:17:53.393Z,48.77
2022-09-26T18:20:28.292Z,48.53
2022-09-26T18:22:55.009Z,48.84
2022-09-26T18:25:26.971Z,49.33
2022-09-26T18:27:56.877Z,49.43
2022-09-26T18:30:24.001Z,49.72
2022-09-26T18:32:56.371Z,48.32
2022-09-26T18:35:27.326Z,47.75
2022-09-26T18:37:57.222Z,47.80
2022-09-26T18:40:25.066Z,48.25
2022-09-26T18:42:57.200Z,48.30
2022-09-26T18:45:36.216Z,48.16
2022-09-26T18:48:08.274Z,47.29
2022-09-26T18:50:39.782Z,46.77
2022-09-26T18:53:34.656Z,46.66
2022-09-26T18:56:19.818Z,48.34
2022-09-26T18:58:48.383Z,48.66
2022-09-26T19:01:21.115Z,48.26
2022-09-26T19:03:51.097Z,47.20
2022-09-26T19:06:21.179Z,46.41
2022-09-26T19:08:51.368Z,46.60
2022-09-26T19:11:23.642Z,46.52
2022-09-26T19:13:52.762Z,47.17
2022-09-26T19:16:20.316Z,47.12
2022-09-26T19:18:47.541Z,46.89
2022-09-26T19:21:38.360Z,47.16
2022-09-26T19:24:32.336Z,46.83
2022-09-26T19:27:30.109Z,47.73
2022-09-26T19:30:04.346Z,47.11
2022-09-26T19:32:32.416Z,48.13
2022-09-26T19:35:16.159Z,47.84
2022-09-26T19:37:43.408Z,47.08
2022-09-26T19:40:14.593Z,47.35
2022-09-26T19:42:42.373Z,47.40
2022-09-26T19:45:11.091Z,47.09
2022-09-26T19:47:45.684Z,47.22
2022-09-26T19:50:18.042Z,47.03
2022-09-26T19:52:45.153Z,47.52
2022-09-26T19:55:21.353Z,47.98
2022-09-26T19:57:48.073Z,47.78
2022-09-26T20:00:15.519Z,47.23
2022-09-26T20:02:42.711Z,47.24
2022-09-26T20:05:20.240Z,47.28
2022-09-26T20:07:49.387Z,47.90
2022-09-26T20:10:19.043Z,47.49
2022-09-26T20:12:46.940Z,47.67
2022-09-26T20:15:15.192Z,47.81
2022-09-26T20:17:44.625Z,47.85
2022-09-26T20:20:16.551Z,48.11
2022-09-26T20:22:44.201Z,48.76
2022-09-26T20:25:17.214Z,48.76
2022-09-26T20:27:44.000Z,49.36
2022-09-26T20:30:33.257Z,49.52
2022-09-26T20:33:00.123Z,48.83
2022-09-26T20:35:35.599Z,49.24
2022-09-26T20:38:33.735Z,49.42
2022-09-26T20:41:13.325Z,49.04
2022-09-26T20:43:43.514Z,49.82
2022-09-26T20:46:11.738Z,49.64
2022-09-26T20:48:42.168Z,49.21
2022-09-26T20:51:19.127Z,48.79
2022-09-26T20:53:45.907Z,49.39
2022-09-26T20:56:21.131Z,49.68
2022-09-26T20:58:48.551Z,50.25
2022-09-26T21:01:17.573Z,49.90
2022-09-26T21:03:51.634Z,49.80
2022-09-26T21:06:25.045Z,50.09
2022-09-26T21:08:53.773Z,50.49
2022-09-26T21:11:22.992Z,50.02
2022-09-26T21:13:52.204Z,50.29
2022-09-26T21:16:21.642Z,49.90
2022-09-26T21:18:51.527Z,50.08
2022-09-26T21:21:30.409Z,50.34
2022-09-26T21:23:59.599Z,50.66
2022-09-26T21:26:29.989Z,50.59
2022-09-26T21:28:58.822Z,50.64
2022-09-26T21:31:31.912Z,51.10
2022-09-26T21:33:59.969Z,51.36
2022-09-26T21:36:34.702Z,50.93
2022-09-26T21:39:02.317Z,51.62
2022-09-26T21:41:31.239Z,51.42
2022-09-26T21:44:03.992Z,51.99
2022-09-26T21:46:31.114Z,51.78
2022-09-26T21:48:58.035Z,52.07
2022-09-26T21:51:28.567Z,51.84
2022-09-26T21:54:03.084Z,52.05
2022-09-26T21:56:35.651Z,51.75
2022-09-26T21:59:06.410Z,51.40
2022-09-26T22:01:33.103Z,51.01
2022-09-26T22:04:01.740Z,51.43
2022-09-26T22:06:28.468Z,51.65
2022-09-26T22:08:55.105Z,51.96
2022-09-26T22:11:22.145Z,52.20
2022-09-26T22:13:48.853Z,52.19
2022-09-26T22:16:15.795Z,52.53
2022-09-26T22:18:42.698Z,52.54
2022-09-26T22:21:11.043Z,52.54
2022-09-26T22:23:38.401Z,53.18
2022-09-26T22:26:05.893Z,53.77
2022-09-26T22:28:32.893Z,53.25
2022-09-26T22:31:05.849Z,53.69
2022-09-26T22:33:33.368Z,53.64
2022-09-26T22:36:00.099Z,54.47
2022-09-26T22:38:26.735Z,54.64
2022-09-26T22:41:01.806Z,55.91
2022-09-26T22:43:29.417Z,55.29
2022-09-26T22:46:08.146Z,54.77
2022-09-26T22:48:43.053Z,55.29
2022-09-26T22:51:10.344Z,55.52
2022-09-26T22:53:38.730Z,56.09
2022-09-26T22:56:08.090Z,55.71
2022-09-26T22:58:39.039Z,55.60
2022-09-26T23:01:11.757Z,54.81
2022-09-26T23:03:39.282Z,55.23
2022-09-26T23:06:06.783Z,55.43
2022-09-26T23:08:34.714Z,55.88
2022-09-26T23:11:02.726Z,55.11
2022-09-26T23:13:31.619Z,55.42
2022-09-26T23:16:10.137Z,55.42
2022-09-26T23:18:39.461Z,54.67
2022-09-26T23:21:14.147Z,54.86
2022-09-26T23:23:43.730Z,55.92
2022-09-26T23:26:17.067Z,56.12
2022-09-26T23:28:43.723Z,57.01
2022-09-26T23:31:11.500Z,57.11
2022-09-26T23:33:38.993Z,57.22
2022-09-26T23:36:07.046Z,58.01
2022-09-26T23:38:35.605Z,57.94
2022-09-26T23:41:02.394Z,58.19
2022-09-26T23:43:30.469Z,57.82
2022-09-26T23:45:57.235Z,58.07
2022-09-26T23:48:23.844Z,57.84
2022-09-26T23:50:50.873Z,57.71
2022-09-26T23:53:17.855Z,57.57
2022-09-26T23:55:44.930Z,57.43
2022-09-26T23:58:12.444Z,58.33
